sensor_id;sensor_type;location;lat;lon;timestamp;pressure;altitude;pressure_sealevel;temperature;humidity
20023;BME280;10172;42.054;24.546;2023-12-29T00:01:17;98838.78;;;5.52;55.50
20023;BME280;10172;42.054;24.546;2023-12-29T00:03:43;98854.03;;;4.95;56.92
20023;BME280;10172;42.054;24.546;2023-12-29T00:06:08;98850.19;;;4.69;58.50
20023;BME280;10172;42.054;24.546;2023-12-29T00:08:34;98845.66;;;4.82;57.20
20023;BME280;10172;42.054;24.546;2023-12-29T00:10:59;98839.63;;;5.36;55.95
20023;BME280;10172;42.054;24.546;2023-12-29T00:13:24;98846.59;;;4.92;57.46
20023;BME280;10172;42.054;24.546;2023-12-29T00:15:54;98843.56;;;4.84;57.87
20023;BME280;10172;42.054;24.546;2023-12-29T00:18:19;98845.81;;;4.92;56.59
20023;BME280;10172;42.054;24.546;2023-12-29T00:20:45;98823.44;;;5.66;54.71
20023;BME280;10172;42.054;24.546;2023-12-29T00:23:10;98835.28;;;4.75;57.10
20023;BME280;10172;42.054;24.546;2023-12-29T00:25:37;98848.16;;;4.43;58.58
20023;BME280;10172;42.054;24.546;2023-12-29T00:28:03;98837.84;;;5.03;57.07
20023;BME280;10172;42.054;24.546;2023-12-29T00:30:29;98824.81;;;5.52;54.63
20023;BME280;10172;42.054;24.546;2023-12-29T00:32:57;98827.94;;;4.94;57.75
20023;BME280;10172;42.054;24.546;2023-12-29T00:35:22;98823.28;;;5.17;56.62
20023;BME280;10172;42.054;24.546;2023-12-29T00:37:50;98832.63;;;5.25;55.25
20023;BME280;10172;42.054;24.546;2023-12-29T00:40:15;98832.00;;;5.56;54.28
20023;BME280;10172;42.054;24.546;2023-12-29T00:42:41;98818.75;;;6.16;52.75
20023;BME280;10172;42.054;24.546;2023-12-29T00:45:07;98816.50;;;6.56;49.83
20023;BME280;10172;42.054;24.546;2023-12-29T00:47:33;98818.41;;;5.86;53.22
20023;BME280;10172;42.054;24.546;2023-12-29T00:49:59;98827.28;;;6.01;52.66
20023;BME280;10172;42.054;24.546;2023-12-29T00:52:25;98824.28;;;6.41;50.75
20023;BME280;10172;42.054;24.546;2023-12-29T00:54:50;98819.94;;;5.82;52.75
20023;BME280;10172;42.054;24.546;2023-12-29T00:57:15;98813.59;;;6.04;52.03
20023;BME280;10172;42.054;24.546;2023-12-29T00:59:41;98821.38;;;6.43;50.82
20023;BME280;10172;42.054;24.546;2023-12-29T01:02:07;98812.88;;;6.09;52.63
20023;BME280;10172;42.054;24.546;2023-12-29T01:04:33;98808.94;;;5.68;53.18
20023;BME280;10172;42.054;24.546;2023-12-29T01:06:58;98804.09;;;6.25;51.06
20023;BME280;10172;42.054;24.546;2023-12-29T01:09:24;98783.84;;;6.09;52.04
20023;BME280;10172;42.054;24.546;2023-12-29T01:11:49;98778.22;;;5.79;53.42
20023;BME280;10172;42.054;24.546;2023-12-29T01:14:15;98777.47;;;6.05;51.92
20023;BME280;10172;42.054;24.546;2023-12-29T01:16:41;98775.06;;;6.30;52.01
20023;BME280;10172;42.054;24.546;2023-12-29T01:19:07;98774.03;;;6.31;52.39
20023;BME280;10172;42.054;24.546;2023-12-29T01:21:32;98782.56;;;6.38;51.94
20023;BME280;10172;42.054;24.546;2023-12-29T01:24:00;98784.91;;;6.66;51.04
20023;BME280;10172;42.054;24.546;2023-12-29T01:26:26;98788.59;;;6.65;51.53
20023;BME280;10172;42.054;24.546;2023-12-29T01:28:52;98790.63;;;6.90;51.18
20023;BME280;10172;42.054;24.546;2023-12-29T01:31:17;98798.00;;;7.25;50.33
20023;BME280;10172;42.054;24.546;2023-12-29T01:33:43;98789.72;;;6.43;51.33
20023;BME280;10172;42.054;24.546;2023-12-29T01:36:08;98782.09;;;6.46;51.58
20023;BME280;10172;42.054;24.546;2023-12-29T01:38:33;98781.41;;;6.61;52.02
20023;BME280;10172;42.054;24.546;2023-12-29T01:40:59;98774.00;;;6.95;51.77
20023;BME280;10172;42.054;24.546;2023-12-29T01:43:24;98777.66;;;6.20;54.11
20023;BME280;10172;42.054;24.546;2023-12-29T01:45:49;98773.75;;;5.79;53.97
20023;BME280;10172;42.054;24.546;2023-12-29T01:48:15;98770.47;;;5.89;54.70
20023;BME280;10172;42.054;24.546;2023-12-29T01:50:40;98771.41;;;6.04;54.75
20023;BME280;10172;42.054;24.546;2023-12-29T01:53:06;98772.81;;;6.12;54.19
20023;BME280;10172;42.054;24.546;2023-12-29T01:55:32;98772.16;;;6.00;54.30
20023;BME280;10172;42.054;24.546;2023-12-29T01:57:58;98777.66;;;6.20;53.76
20023;BME280;10172;42.054;24.546;2023-12-29T02:00:25;98786.59;;;6.19;53.33
20023;BME280;10172;42.054;24.546;2023-12-29T02:02:51;98783.50;;;6.00;53.93
20023;BME280;10172;42.054;24.546;2023-12-29T02:05:17;98785.94;;;6.07;53.75
20023;BME280;10172;42.054;24.546;2023-12-29T02:07:43;98784.59;;;6.04;53.52
20023;BME280;10172;42.054;24.546;2023-12-29T02:10:09;98769.66;;;6.15;53.97
20023;BME280;10172;42.054;24.546;2023-12-29T02:12:41;98777.31;;;6.43;52.85
20023;BME280;10172;42.054;24.546;2023-12-29T02:15:07;98789.31;;;6.02;54.05
20023;BME280;10172;42.054;24.546;2023-12-29T02:17:44;98781.41;;;6.02;53.97
20023;BME280;10172;42.054;24.546;2023-12-29T02:20:11;98784.53;;;5.99;54.42
20023;BME280;10172;42.054;24.546;2023-12-29T02:22:36;98780.69;;;5.85;54.74
20023;BME280;10172;42.054;24.546;2023-12-29T02:25:02;98782.09;;;5.49;55.85
20023;BME280;10172;42.054;24.546;2023-12-29T02:27:39;98772.31;;;6.15;53.93
20023;BME280;10172;42.054;24.546;2023-12-29T02:32:33;98788.16;;;5.72;54.50
20023;BME280;10172;42.054;24.546;2023-12-29T02:35:02;98768.84;;;5.88;54.73
20023;BME280;10172;42.054;24.546;2023-12-29T02:37:29;98756.88;;;6.02;54.36
20023;BME280;10172;42.054;24.546;2023-12-29T02:39:56;98750.16;;;5.89;54.36
20023;BME280;10172;42.054;24.546;2023-12-29T02:42:22;98770.75;;;4.72;57.98
20023;BME280;10172;42.054;24.546;2023-12-29T02:44:47;98752.78;;;4.86;56.13
20023;BME280;10172;42.054;24.546;2023-12-29T02:47:13;98743.88;;;5.30;54.82
20023;BME280;10172;42.054;24.546;2023-12-29T02:49:38;98741.59;;;5.56;53.21
20023;BME280;10172;42.054;24.546;2023-12-29T02:52:04;98743.19;;;5.83;51.47
20023;BME280;10172;42.054;24.546;2023-12-29T02:54:29;98732.13;;;6.08;50.30
20023;BME280;10172;42.054;24.546;2023-12-29T02:56:54;98740.22;;;5.96;51.86
20023;BME280;10172;42.054;24.546;2023-12-29T02:59:20;98738.81;;;6.47;50.48
20023;BME280;10172;42.054;24.546;2023-12-29T03:01:45;98731.19;;;6.19;51.99
20023;BME280;10172;42.054;24.546;2023-12-29T03:04:11;98734.41;;;6.58;50.64
20023;BME280;10172;42.054;24.546;2023-12-29T03:06:38;98731.59;;;6.06;51.84
20023;BME280;10172;42.054;24.546;2023-12-29T03:09:03;98725.97;;;5.49;53.28
20023;BME280;10172;42.054;24.546;2023-12-29T03:11:28;98721.63;;;5.00;54.58
20023;BME280;10172;42.054;24.546;2023-12-29T03:13:54;98718.81;;;4.85;55.25
20023;BME280;10172;42.054;24.546;2023-12-29T03:16:19;98707.19;;;5.02;54.49
20023;BME280;10172;42.054;24.546;2023-12-29T03:18:44;98708.06;;;5.51;54.24
20023;BME280;10172;42.054;24.546;2023-12-29T03:21:10;98703.56;;;5.52;53.69
20023;BME280;10172;42.054;24.546;2023-12-29T03:23:35;98702.84;;;5.56;53.27
20023;BME280;10172;42.054;24.546;2023-12-29T03:26:01;98700.16;;;5.29;54.41
20023;BME280;10172;42.054;24.546;2023-12-29T03:28:26;98702.53;;;5.53;53.42
20023;BME280;10172;42.054;24.546;2023-12-29T03:30:51;98699.69;;;5.32;53.19
20023;BME280;10172;42.054;24.546;2023-12-29T03:33:17;98696.97;;;5.06;53.93
20023;BME280;10172;42.054;24.546;2023-12-29T03:35:42;98699.41;;;5.12;53.77
20023;BME280;10172;42.054;24.546;2023-12-29T03:38:08;98695.38;;;5.26;52.51
20023;BME280;10172;42.054;24.546;2023-12-29T03:40:33;98695.38;;;5.75;51.53
20023;BME280;10172;42.054;24.546;2023-12-29T03:42:58;98688.81;;;6.04;49.90
20023;BME280;10172;42.054;24.546;2023-12-29T03:45:24;98691.84;;;5.86;50.72
20023;BME280;10172;42.054;24.546;2023-12-29T03:47:49;98694.50;;;6.18;49.65
20023;BME280;10172;42.054;24.546;2023-12-29T03:50:14;98693.13;;;6.47;48.93
20023;BME280;10172;42.054;24.546;2023-12-29T03:52:40;98698.81;;;6.29;49.91
20023;BME280;10172;42.054;24.546;2023-12-29T03:55:05;98699.00;;;5.90;50.21
20023;BME280;10172;42.054;24.546;2023-12-29T03:57:31;98688.38;;;5.85;50.91
20023;BME280;10172;42.054;24.546;2023-12-29T03:59:56;98680.88;;;5.99;49.47
20023;BME280;10172;42.054;24.546;2023-12-29T04:02:22;98678.63;;;6.49;47.87
20023;BME280;10172;42.054;24.546;2023-12-29T04:04:47;98666.25;;;7.02;46.65
20023;BME280;10172;42.054;24.546;2023-12-29T04:07:13;98672.16;;;6.30;48.66
20023;BME280;10172;42.054;24.546;2023-12-29T04:09:38;98666.72;;;6.42;48.63
20023;BME280;10172;42.054;24.546;2023-12-29T04:12:03;98657.66;;;6.69;47.66
20023;BME280;10172;42.054;24.546;2023-12-29T04:14:29;98662.81;;;6.96;47.30
20023;BME280;10172;42.054;24.546;2023-12-29T04:16:54;98661.44;;;6.89;48.07
20023;BME280;10172;42.054;24.546;2023-12-29T04:19:19;98662.31;;;7.09;48.18
20023;BME280;10172;42.054;24.546;2023-12-29T04:21:45;98670.78;;;7.11;48.37
20023;BME280;10172;42.054;24.546;2023-12-29T04:24:10;98667.44;;;7.31;47.67
20023;BME280;10172;42.054;24.546;2023-12-29T04:26:36;98674.31;;;7.37;46.37
20023;BME280;10172;42.054;24.546;2023-12-29T04:29:02;98668.47;;;7.20;47.47
20023;BME280;10172;42.054;24.546;2023-12-29T04:31:28;98673.06;;;6.88;47.86
20023;BME280;10172;42.054;24.546;2023-12-29T04:33:53;98676.81;;;7.02;47.57
20023;BME280;10172;42.054;24.546;2023-12-29T04:36:18;98680.19;;;6.82;48.26
20023;BME280;10172;42.054;24.546;2023-12-29T04:38:44;98671.88;;;6.68;48.32
20023;BME280;10172;42.054;24.546;2023-12-29T04:41:12;98680.00;;;6.57;48.79
20023;BME280;10172;42.054;24.546;2023-12-29T04:43:37;98672.75;;;6.79;47.79
20023;BME280;10172;42.054;24.546;2023-12-29T04:46:03;98671.97;;;6.83;48.14
20023;BME280;10172;42.054;24.546;2023-12-29T04:48:28;98669.44;;;6.99;47.47
20023;BME280;10172;42.054;24.546;2023-12-29T04:50:53;98672.09;;;7.09;47.03
20023;BME280;10172;42.054;24.546;2023-12-29T04:53:19;98677.19;;;6.73;48.35
20023;BME280;10172;42.054;24.546;2023-12-29T04:55:44;98675.59;;;6.67;48.56
20023;BME280;10172;42.054;24.546;2023-12-29T04:58:10;98684.06;;;6.69;48.88
20023;BME280;10172;42.054;24.546;2023-12-29T05:00:35;98687.97;;;6.62;49.07
20023;BME280;10172;42.054;24.546;2023-12-29T05:03:00;98679.53;;;7.17;48.05
20023;BME280;10172;42.054;24.546;2023-12-29T05:05:26;98684.88;;;6.38;49.73
20023;BME280;10172;42.054;24.546;2023-12-29T05:07:51;98683.81;;;6.34;49.75
20023;BME280;10172;42.054;24.546;2023-12-29T05:10:16;98678.72;;;6.23;50.48
20023;BME280;10172;42.054;24.546;2023-12-29T05:12:42;98681.00;;;6.46;49.27
20023;BME280;10172;42.054;24.546;2023-12-29T05:15:07;98672.13;;;6.25;50.19
20023;BME280;10172;42.054;24.546;2023-12-29T05:17:33;98678.53;;;6.34;49.82
20023;BME280;10172;42.054;24.546;2023-12-29T05:19:58;98678.19;;;5.94;51.08
20023;BME280;10172;42.054;24.546;2023-12-29T05:22:23;98672.44;;;6.02;50.29
20023;BME280;10172;42.054;24.546;2023-12-29T05:24:49;98674.06;;;6.03;51.19
20023;BME280;10172;42.054;24.546;2023-12-29T05:27:14;98680.28;;;6.24;50.32
20023;BME280;10172;42.054;24.546;2023-12-29T05:29:39;98684.31;;;5.99;50.72
20023;BME280;10172;42.054;24.546;2023-12-29T05:32:05;98683.44;;;6.57;49.58
20023;BME280;10172;42.054;24.546;2023-12-29T05:34:31;98683.16;;;6.17;50.54
20023;BME280;10172;42.054;24.546;2023-12-29T05:36:56;98677.16;;;6.27;49.99
20023;BME280;10172;42.054;24.546;2023-12-29T05:39:21;98685.13;;;6.32;49.93
20023;BME280;10172;42.054;24.546;2023-12-29T05:41:47;98695.41;;;6.33;50.11
20023;BME280;10172;42.054;24.546;2023-12-29T05:44:12;98694.91;;;6.36;49.66
20023;BME280;10172;42.054;24.546;2023-12-29T05:46:38;98690.97;;;6.07;50.71
20023;BME280;10172;42.054;24.546;2023-12-29T05:49:03;98695.38;;;6.01;51.57
20023;BME280;10172;42.054;24.546;2023-12-29T05:51:29;98714.00;;;5.90;51.97
20023;BME280;10172;42.054;24.546;2023-12-29T05:53:54;98710.22;;;6.07;51.54
20023;BME280;10172;42.054;24.546;2023-12-29T05:56:20;98727.25;;;5.95;52.43
20023;BME280;10172;42.054;24.546;2023-12-29T05:58:45;98717.25;;;5.97;51.97
20023;BME280;10172;42.054;24.546;2023-12-29T06:01:11;98733.06;;;5.92;52.19
20023;BME280;10172;42.054;24.546;2023-12-29T06:03:36;98723.03;;;5.72;52.64
20023;BME280;10172;42.054;24.546;2023-12-29T06:06:02;98706.00;;;6.06;52.19
20023;BME280;10172;42.054;24.546;2023-12-29T06:08:27;98712.44;;;5.89;53.00
20023;BME280;10172;42.054;24.546;2023-12-29T06:10:53;98718.47;;;5.41;53.54
20023;BME280;10172;42.054;24.546;2023-12-29T06:13:18;98714.06;;;5.25;54.51
20023;BME280;10172;42.054;24.546;2023-12-29T06:15:44;98713.91;;;4.93;55.34
20023;BME280;10172;42.054;24.546;2023-12-29T06:18:09;98718.00;;;4.84;55.88
20023;BME280;10172;42.054;24.546;2023-12-29T06:20:34;98709.28;;;5.22;54.15
20023;BME280;10172;42.054;24.546;2023-12-29T06:23:00;98715.69;;;4.71;54.78
20023;BME280;10172;42.054;24.546;2023-12-29T06:25:26;98723.69;;;5.36;53.26
20023;BME280;10172;42.054;24.546;2023-12-29T06:27:51;98717.59;;;5.35;52.99
20023;BME280;10172;42.054;24.546;2023-12-29T06:30:17;98708.81;;;5.52;53.93
20023;BME280;10172;42.054;24.546;2023-12-29T06:32:42;98710.38;;;5.47;52.98
20023;BME280;10172;42.054;24.546;2023-12-29T06:35:08;98718.47;;;5.41;54.32
20023;BME280;10172;42.054;24.546;2023-12-29T06:37:37;98710.69;;;4.69;55.22
20023;BME280;10172;42.054;24.546;2023-12-29T06:40:05;98693.97;;;4.80;55.78
20023;BME280;10172;42.054;24.546;2023-12-29T06:42:31;98690.00;;;4.78;55.46
20023;BME280;10172;42.054;24.546;2023-12-29T06:44:57;98684.97;;;5.15;53.90
20023;BME280;10172;42.054;24.546;2023-12-29T06:47:22;98679.59;;;5.53;52.38
20023;BME280;10172;42.054;24.546;2023-12-29T06:49:48;98673.00;;;5.51;51.98
20023;BME280;10172;42.054;24.546;2023-12-29T06:52:13;98677.81;;;5.59;51.99
20023;BME280;10172;42.054;24.546;2023-12-29T06:54:39;98677.09;;;5.90;51.13
20023;BME280;10172;42.054;24.546;2023-12-29T06:57:04;98676.69;;;6.03;51.29
20023;BME280;10172;42.054;24.546;2023-12-29T06:59:30;98694.34;;;6.02;50.80
20023;BME280;10172;42.054;24.546;2023-12-29T07:01:56;98691.16;;;6.27;50.03
20023;BME280;10172;42.054;24.546;2023-12-29T07:04:21;98700.44;;;6.03;50.73
20023;BME280;10172;42.054;24.546;2023-12-29T07:06:47;98702.47;;;6.28;50.05
20023;BME280;10172;42.054;24.546;2023-12-29T07:09:12;98702.59;;;6.11;50.62
20023;BME280;10172;42.054;24.546;2023-12-29T07:11:37;98706.44;;;6.25;50.14
20023;BME280;10172;42.054;24.546;2023-12-29T07:14:03;98699.88;;;6.33;49.72
20023;BME280;10172;42.054;24.546;2023-12-29T07:16:28;98708.06;;;6.31;49.39
20023;BME280;10172;42.054;24.546;2023-12-29T07:18:54;98697.63;;;6.46;49.13
20023;BME280;10172;42.054;24.546;2023-12-29T07:21:19;98698.88;;;6.75;47.85
20023;BME280;10172;42.054;24.546;2023-12-29T07:23:45;98691.47;;;6.72;47.93
20023;BME280;10172;42.054;24.546;2023-12-29T07:26:10;98702.69;;;6.53;48.47
20023;BME280;10172;42.054;24.546;2023-12-29T07:28:36;98694.88;;;6.68;48.07
20023;BME280;10172;42.054;24.546;2023-12-29T07:31:01;98691.56;;;6.93;46.96
20023;BME280;10172;42.054;24.546;2023-12-29T07:33:27;98686.72;;;6.74;47.66
20023;BME280;10172;42.054;24.546;2023-12-29T07:35:53;98682.31;;;6.90;47.07
20023;BME280;10172;42.054;24.546;2023-12-29T07:38:19;98683.72;;;7.03;46.86
20023;BME280;10172;42.054;24.546;2023-12-29T07:40:44;98680.94;;;7.29;46.42
20023;BME280;10172;42.054;24.546;2023-12-29T07:43:10;98675.97;;;7.48;45.91
20023;BME280;10172;42.054;24.546;2023-12-29T07:45:35;98674.41;;;7.57;45.62
20023;BME280;10172;42.054;24.546;2023-12-29T07:48:04;98673.59;;;7.57;46.15
20023;BME280;10172;42.054;24.546;2023-12-29T07:50:29;98688.44;;;7.73;46.24
20023;BME280;10172;42.054;24.546;2023-12-29T07:52:55;98686.56;;;7.68;47.38
20023;BME280;10172;42.054;24.546;2023-12-29T07:55:20;98677.31;;;7.66;47.55
20023;BME280;10172;42.054;24.546;2023-12-29T07:57:46;98663.13;;;8.27;46.07
20023;BME280;10172;42.054;24.546;2023-12-29T08:00:13;98677.66;;;8.14;46.08
20023;BME280;10172;42.054;24.546;2023-12-29T08:02:39;98668.41;;;8.22;46.87
20023;BME280;10172;42.054;24.546;2023-12-29T08:05:05;98665.75;;;8.17;49.76
20023;BME280;10172;42.054;24.546;2023-12-29T08:07:30;98677.66;;;8.14;50.20
20023;BME280;10172;42.054;24.546;2023-12-29T08:09:57;98681.38;;;8.49;50.54
20023;BME280;10172;42.054;24.546;2023-12-29T08:12:22;98677.94;;;8.33;50.79
20023;BME280;10172;42.054;24.546;2023-12-29T08:14:47;98691.41;;;8.06;51.76
20023;BME280;10172;42.054;24.546;2023-12-29T08:17:13;98691.97;;;8.29;51.76
20023;BME280;10172;42.054;24.546;2023-12-29T08:19:38;98691.97;;;8.59;51.35
20023;BME280;10172;42.054;24.546;2023-12-29T08:22:03;98691.44;;;8.72;50.97
20023;BME280;10172;42.054;24.546;2023-12-29T08:24:29;98696.72;;;8.52;51.83
20023;BME280;10172;42.054;24.546;2023-12-29T08:26:54;98702.59;;;8.39;51.58
20023;BME280;10172;42.054;24.546;2023-12-29T08:29:20;98698.28;;;8.73;50.89
20023;BME280;10172;42.054;24.546;2023-12-29T08:31:46;98705.59;;;9.21;49.34
20023;BME280;10172;42.054;24.546;2023-12-29T08:34:12;98708.59;;;9.00;50.30
20023;BME280;10172;42.054;24.546;2023-12-29T08:36:37;98700.00;;;9.33;49.97
20023;BME280;10172;42.054;24.546;2023-12-29T08:39:03;98692.72;;;9.53;49.80
20023;BME280;10172;42.054;24.546;2023-12-29T08:41:28;98689.22;;;9.68;48.56
20023;BME280;10172;42.054;24.546;2023-12-29T08:43:53;98690.66;;;9.89;48.15
20023;BME280;10172;42.054;24.546;2023-12-29T08:46:19;98677.75;;;9.73;48.17
20023;BME280;10172;42.054;24.546;2023-12-29T08:48:45;98682.25;;;10.21;46.90
20023;BME280;10172;42.054;24.546;2023-12-29T08:51:10;98678.38;;;9.98;48.24
20023;BME280;10172;42.054;24.546;2023-12-29T08:53:36;98676.94;;;10.21;47.23
20023;BME280;10172;42.054;24.546;2023-12-29T08:56:02;98680.19;;;10.47;45.17
20023;BME280;10172;42.054;24.546;2023-12-29T08:58:28;98680.47;;;10.45;44.65
20023;BME280;10172;42.054;24.546;2023-12-29T09:00:54;98679.72;;;10.68;44.30
20023;BME280;10172;42.054;24.546;2023-12-29T09:03:19;98682.94;;;10.89;43.97
20023;BME280;10172;42.054;24.546;2023-12-29T09:05:44;98688.88;;;11.10;42.20
20023;BME280;10172;42.054;24.546;2023-12-29T09:08:10;98681.91;;;10.61;43.17
20023;BME280;10172;42.054;24.546;2023-12-29T09:10:35;98692.53;;;10.61;43.21
20023;BME280;10172;42.054;24.546;2023-12-29T09:13:01;98687.22;;;11.14;41.34
20023;BME280;10172;42.054;24.546;2023-12-29T09:15:26;98682.50;;;11.06;41.71
20023;BME280;10172;42.054;24.546;2023-12-29T09:17:51;98675.56;;;11.10;42.01
20023;BME280;10172;42.054;24.546;2023-12-29T09:20:17;98680.97;;;11.66;40.95
20023;BME280;10172;42.054;24.546;2023-12-29T09:22:42;98676.44;;;11.66;40.86
20023;BME280;10172;42.054;24.546;2023-12-29T09:25:08;98671.78;;;12.14;38.92
20023;BME280;10172;42.054;24.546;2023-12-29T09:27:33;98673.09;;;11.98;39.54
20023;BME280;10172;42.054;24.546;2023-12-29T09:29:59;98666.75;;;11.33;39.38
20023;BME280;10172;42.054;24.546;2023-12-29T09:32:24;98664.25;;;11.84;39.17
20023;BME280;10172;42.054;24.546;2023-12-29T09:34:50;98662.91;;;12.18;38.23
20023;BME280;10172;42.054;24.546;2023-12-29T09:37:15;98655.56;;;12.10;38.21
20023;BME280;10172;42.054;24.546;2023-12-29T09:39:40;98658.41;;;12.33;38.15
20023;BME280;10172;42.054;24.546;2023-12-29T09:42:08;98660.91;;;12.10;38.07
20023;BME280;10172;42.054;24.546;2023-12-29T09:44:35;98652.75;;;12.20;37.87
20023;BME280;10172;42.054;24.546;2023-12-29T09:47:02;98649.34;;;12.34;38.26
20023;BME280;10172;42.054;24.546;2023-12-29T09:49:36;98646.56;;;12.39;37.56
20023;BME280;10172;42.054;24.546;2023-12-29T09:52:02;98646.41;;;12.49;37.48
20023;BME280;10172;42.054;24.546;2023-12-29T09:54:29;98638.06;;;12.82;37.35
20023;BME280;10172;42.054;24.546;2023-12-29T09:56:56;98622.50;;;13.17;37.16
20023;BME280;10172;42.054;24.546;2023-12-29T09:59:22;98615.34;;;13.12;37.56
20023;BME280;10172;42.054;24.546;2023-12-29T10:01:49;98607.00;;;13.77;36.11
20023;BME280;10172;42.054;24.546;2023-12-29T10:04:15;98606.03;;;13.37;36.61
20023;BME280;10172;42.054;24.546;2023-12-29T10:06:42;98607.97;;;13.09;37.99
20023;BME280;10172;42.054;24.546;2023-12-29T10:09:12;98606.03;;;13.37;36.65
20023;BME280;10172;42.054;24.546;2023-12-29T10:11:38;98603.56;;;13.40;37.07
20023;BME280;10172;42.054;24.546;2023-12-29T10:14:11;98601.31;;;13.70;36.95
20023;BME280;10172;42.054;24.546;2023-12-29T10:16:42;98599.31;;;13.75;36.50
20023;BME280;10172;42.054;24.546;2023-12-29T10:19:27;98608.00;;;13.81;36.54
20023;BME280;10172;42.054;24.546;2023-12-29T10:22:21;98602.25;;;13.51;37.67
20023;BME280;10172;42.054;24.546;2023-12-29T10:24:47;98596.38;;;13.63;36.62
20023;BME280;10172;42.054;24.546;2023-12-29T10:27:13;98589.47;;;13.84;36.96
20023;BME280;10172;42.054;24.546;2023-12-29T10:29:39;98591.84;;;14.30;36.18
20023;BME280;10172;42.054;24.546;2023-12-29T10:32:05;98579.03;;;14.88;34.97
20023;BME280;10172;42.054;24.546;2023-12-29T10:34:30;98574.41;;;14.72;34.50
20023;BME280;10172;42.054;24.546;2023-12-29T10:37:00;98568.47;;;14.75;34.82
20023;BME280;10172;42.054;24.546;2023-12-29T10:39:34;98563.25;;;14.70;34.89
20023;BME280;10172;42.054;24.546;2023-12-29T10:42:07;98560.97;;;15.03;34.00
20023;BME280;10172;42.054;24.546;2023-12-29T10:44:37;98570.44;;;15.17;34.90
20023;BME280;10172;42.054;24.546;2023-12-29T10:47:09;98572.56;;;15.63;33.30
20023;BME280;10172;42.054;24.546;2023-12-29T10:49:35;98570.66;;;15.55;34.20
20023;BME280;10172;42.054;24.546;2023-12-29T10:52:13;98561.97;;;15.41;33.88
20023;BME280;10172;42.054;24.546;2023-12-29T10:54:39;98555.25;;;15.52;33.35
20023;BME280;10172;42.054;24.546;2023-12-29T10:57:05;98562.03;;;15.49;33.93
20023;BME280;10172;42.054;24.546;2023-12-29T10:59:30;98556.25;;;15.08;34.91
20023;BME280;10172;42.054;24.546;2023-12-29T11:01:56;98551.44;;;15.79;33.80
20023;BME280;10172;42.054;24.546;2023-12-29T11:04:22;98549.97;;;16.07;33.70
20023;BME280;10172;42.054;24.546;2023-12-29T11:06:48;98544.59;;;16.15;33.08
20023;BME280;10172;42.054;24.546;2023-12-29T11:09:36;98549.75;;;16.38;32.50
20023;BME280;10172;42.054;24.546;2023-12-29T11:12:03;98539.44;;;16.57;32.64
20023;BME280;10172;42.054;24.546;2023-12-29T11:14:32;98539.91;;;16.59;32.42
20023;BME280;10172;42.054;24.546;2023-12-29T11:16:59;98530.56;;;17.15;31.30
20023;BME280;10172;42.054;24.546;2023-12-29T11:19:26;98531.72;;;16.84;30.78
20023;BME280;10172;42.054;24.546;2023-12-29T11:21:54;98533.75;;;16.87;30.80
20023;BME280;10172;42.054;24.546;2023-12-29T11:24:19;98524.06;;;16.95;30.25
20023;BME280;10172;42.054;24.546;2023-12-29T11:26:45;98520.97;;;17.14;30.46
20023;BME280;10172;42.054;24.546;2023-12-29T11:29:14;98526.78;;;17.16;29.13
20023;BME280;10172;42.054;24.546;2023-12-29T11:31:41;98531.69;;;17.34;29.37
20023;BME280;10172;42.054;24.546;2023-12-29T11:34:13;98529.28;;;17.41;28.42
20023;BME280;10172;42.054;24.546;2023-12-29T11:36:45;98526.91;;;17.19;29.03
20023;BME280;10172;42.054;24.546;2023-12-29T11:39:40;98526.25;;;17.02;29.91
20023;BME280;10172;42.054;24.546;2023-12-29T11:44:37;98525.91;;;16.74;28.93
20023;BME280;10172;42.054;24.546;2023-12-29T11:47:03;98531.97;;;16.71;30.03
20023;BME280;10172;42.054;24.546;2023-12-29T11:49:58;98526.22;;;16.52;30.90
20023;BME280;10172;42.054;24.546;2023-12-29T11:52:34;98520.56;;;16.74;30.18
20023;BME280;10172;42.054;24.546;2023-12-29T11:55:09;98522.84;;;16.55;30.09
20023;BME280;10172;42.054;24.546;2023-12-29T11:57:35;98515.34;;;16.77;29.40
20023;BME280;10172;42.054;24.546;2023-12-29T12:00:02;98512.78;;;16.81;29.25
20023;BME280;10172;42.054;24.546;2023-12-29T12:02:30;98515.69;;;16.97;29.00
20023;BME280;10172;42.054;24.546;2023-12-29T12:04:56;98511.72;;;15.89;31.28
20023;BME280;10172;42.054;24.546;2023-12-29T12:09:47;98515.88;;;16.91;29.27
20023;BME280;10172;42.054;24.546;2023-12-29T12:12:43;98499.78;;;17.12;29.86
20023;BME280;10172;42.054;24.546;2023-12-29T12:17:52;98498.63;;;17.63;28.46
20023;BME280;10172;42.054;24.546;2023-12-29T12:20:18;98503.59;;;17.73;28.48
20023;BME280;10172;42.054;24.546;2023-12-29T12:22:44;98507.88;;;17.86;28.79
20023;BME280;10172;42.054;24.546;2023-12-29T12:25:11;98504.88;;;18.00;28.43
20023;BME280;10172;42.054;24.546;2023-12-29T12:27:38;98503.03;;;18.24;28.48
20023;BME280;10172;42.054;24.546;2023-12-29T12:30:04;98497.97;;;18.11;28.47
20023;BME280;10172;42.054;24.546;2023-12-29T12:32:30;98490.06;;;18.63;28.53
20023;BME280;10172;42.054;24.546;2023-12-29T12:34:56;98498.25;;;18.42;28.92
20023;BME280;10172;42.054;24.546;2023-12-29T12:37:29;98492.63;;;18.83;27.30
20023;BME280;10172;42.054;24.546;2023-12-29T12:39:55;98495.56;;;18.54;27.70
20023;BME280;10172;42.054;24.546;2023-12-29T12:42:22;98500.00;;;18.26;28.35
20023;BME280;10172;42.054;24.546;2023-12-29T12:44:56;98493.56;;;18.63;27.73
20023;BME280;10172;42.054;24.546;2023-12-29T12:47:44;98489.84;;;18.68;27.71
20023;BME280;10172;42.054;24.546;2023-12-29T12:50:14;98494.44;;;18.91;26.97
20023;BME280;10172;42.054;24.546;2023-12-29T12:52:39;98500.53;;;19.16;27.11
20023;BME280;10172;42.054;24.546;2023-12-29T12:55:06;98495.31;;;18.96;26.97
20023;BME280;10172;42.054;24.546;2023-12-29T12:57:33;98501.16;;;18.85;27.22
20023;BME280;10172;42.054;24.546;2023-12-29T13:00:00;98502.50;;;19.04;26.89
20023;BME280;10172;42.054;24.546;2023-12-29T13:02:26;98499.66;;;19.12;27.19
20023;BME280;10172;42.054;24.546;2023-12-29T13:04:52;98496.34;;;18.79;27.49